Delaware, Ohio
Current Conditions -  °F | °C
As of 8:39 AM on Friday 28 Nov 2014 (Local Time) from KDLZ Reporting Station
Broken Clouds Broken Clouds  
Wind Chill: 16°   Ceiling: 11000
Heat Index: 23°   Visibility: 10mi
Dew Point: 18°   Wind: 6mph
Humidity: 80%   Direction: 250°WSW
Pressure: 30.38"   Gusts: NA
Location:  40.3°N, 83.06°W
Report Text: KDLZ 281339Z AUTO 25005KT 10SM SCT038 BKN110 M05/M08 A3038 RMK AO2
Loading
Personal Weather Stations






























Interactive Weather Map New forecast layout! Learn more

10-Day Weather Forecast

Advertisements
Track Severe Weather on mobile